sensor_id;sensor_type;location;lat;lon;timestamp;pressure;altitude;pressure_sealevel;temperature
41593;BMP180;28026;48.562;14.440;2022-08-21T00:00:42;93725.00;;;22.70
41593;BMP180;28026;48.562;14.440;2022-08-21T00:03:13;93735.00;;;22.70
41593;BMP180;28026;48.562;14.440;2022-08-21T00:05:49;93740.00;;;22.80
41593;BMP180;28026;48.562;14.440;2022-08-21T00:08:21;93726.00;;;22.70
41593;BMP180;28026;48.562;14.440;2022-08-21T00:10:52;93727.00;;;22.70
41593;BMP180;28026;48.562;14.440;2022-08-21T00:13:23;93723.00;;;22.80
41593;BMP180;28026;48.562;14.440;2022-08-21T00:15:54;93734.00;;;22.80
41593;BMP180;28026;48.562;14.440;2022-08-21T00:18:26;93728.00;;;22.80
41593;BMP180;28026;48.562;14.440;2022-08-21T00:20:57;93726.00;;;22.90
41593;BMP180;28026;48.562;14.440;2022-08-21T00:23:28;93734.00;;;22.90
41593;BMP180;28026;48.562;14.440;2022-08-21T00:25:59;93728.00;;;22.90
41593;BMP180;28026;48.562;14.440;2022-08-21T00:28:30;93724.00;;;23.00
41593;BMP180;28026;48.562;14.440;2022-08-21T00:31:02;93732.00;;;23.00
41593;BMP180;28026;48.562;14.440;2022-08-21T00:33:36;93725.00;;;23.00
41593;BMP180;28026;48.562;14.440;2022-08-21T00:36:07;93710.00;;;23.00
41593;BMP180;28026;48.562;14.440;2022-08-21T00:38:39;93719.00;;;23.00
41593;BMP180;28026;48.562;14.440;2022-08-21T00:41:11;93710.00;;;23.00
41593;BMP180;28026;48.562;14.440;2022-08-21T00:43:42;93719.00;;;23.10
41593;BMP180;28026;48.562;14.440;2022-08-21T00:46:13;93718.00;;;23.10
41593;BMP180;28026;48.562;14.440;2022-08-21T00:48:44;93725.00;;;23.10
41593;BMP180;28026;48.562;14.440;2022-08-21T00:51:20;93719.00;;;23.20
41593;BMP180;28026;48.562;14.440;2022-08-21T00:53:59;93720.00;;;23.20
41593;BMP180;28026;48.562;14.440;2022-08-21T00:56:32;93706.00;;;23.10
41593;BMP180;28026;48.562;14.440;2022-08-21T00:59:04;93711.00;;;23.10
41593;BMP180;28026;48.562;14.440;2022-08-21T01:01:36;93709.00;;;23.20
41593;BMP180;28026;48.562;14.440;2022-08-21T01:04:07;93716.00;;;23.20
41593;BMP180;28026;48.562;14.440;2022-08-21T01:06:39;93710.00;;;23.20
41593;BMP180;28026;48.562;14.440;2022-08-21T01:09:11;93709.00;;;23.20
41593;BMP180;28026;48.562;14.440;2022-08-21T01:11:43;93707.00;;;23.20
41593;BMP180;28026;48.562;14.440;2022-08-21T01:14:15;93707.00;;;23.30
41593;BMP180;28026;48.562;14.440;2022-08-21T01:16:51;93711.00;;;23.30
41593;BMP180;28026;48.562;14.440;2022-08-21T01:19:25;93703.00;;;23.30
41593;BMP180;28026;48.562;14.440;2022-08-21T01:21:57;93696.00;;;23.30
41593;BMP180;28026;48.562;14.440;2022-08-21T01:24:30;93703.00;;;23.30
41593;BMP180;28026;48.562;14.440;2022-08-21T01:27:05;93703.00;;;23.30
41593;BMP180;28026;48.562;14.440;2022-08-21T01:29:58;93699.00;;;23.30
41593;BMP180;28026;48.562;14.440;2022-08-21T01:32:35;93694.00;;;23.30
41593;BMP180;28026;48.562;14.440;2022-08-21T01:35:08;93711.00;;;23.30
41593;BMP180;28026;48.562;14.440;2022-08-21T01:37:41;93711.00;;;23.20
41593;BMP180;28026;48.562;14.440;2022-08-21T01:40:15;93708.00;;;23.20
41593;BMP180;28026;48.562;14.440;2022-08-21T01:42:47;93705.00;;;23.20
41593;BMP180;28026;48.562;14.440;2022-08-21T01:45:19;93718.00;;;23.20
41593;BMP180;28026;48.562;14.440;2022-08-21T01:47:50;93717.00;;;23.20
41593;BMP180;28026;48.562;14.440;2022-08-21T01:50:22;93708.00;;;23.20
41593;BMP180;28026;48.562;14.440;2022-08-21T01:52:53;93702.00;;;23.20
41593;BMP180;28026;48.562;14.440;2022-08-21T01:55:24;93705.00;;;23.20
41593;BMP180;28026;48.562;14.440;2022-08-21T01:57:58;93703.00;;;23.20
41593;BMP180;28026;48.562;14.440;2022-08-21T02:00:29;93698.00;;;23.20
41593;BMP180;28026;48.562;14.440;2022-08-21T02:03:02;93695.00;;;23.20
41593;BMP180;28026;48.562;14.440;2022-08-21T02:05:33;93696.00;;;23.20
41593;BMP180;28026;48.562;14.440;2022-08-21T02:08:06;93694.00;;;23.20
41593;BMP180;28026;48.562;14.440;2022-08-21T02:10:38;93686.00;;;23.20
41593;BMP180;28026;48.562;14.440;2022-08-21T02:13:09;93682.00;;;23.20
41593;BMP180;28026;48.562;14.440;2022-08-21T02:15:40;93680.00;;;23.20
41593;BMP180;28026;48.562;14.440;2022-08-21T02:18:12;93674.00;;;23.20
41593;BMP180;28026;48.562;14.440;2022-08-21T02:20:48;93685.00;;;23.20
41593;BMP180;28026;48.562;14.440;2022-08-21T02:23:19;93672.00;;;23.20
41593;BMP180;28026;48.562;14.440;2022-08-21T02:25:50;93671.00;;;23.20
41593;BMP180;28026;48.562;14.440;2022-08-21T02:28:21;93666.00;;;23.20
41593;BMP180;28026;48.562;14.440;2022-08-21T02:30:53;93664.00;;;23.20
41593;BMP180;28026;48.562;14.440;2022-08-21T02:33:27;93660.00;;;23.20
41593;BMP180;28026;48.562;14.440;2022-08-21T02:35:58;93664.00;;;23.10
41593;BMP180;28026;48.562;14.440;2022-08-21T02:38:32;93654.00;;;23.00
41593;BMP180;28026;48.562;14.440;2022-08-21T02:41:13;93657.00;;;23.00
41593;BMP180;28026;48.562;14.440;2022-08-21T02:43:49;93673.00;;;23.10
41593;BMP180;28026;48.562;14.440;2022-08-21T02:46:21;93667.00;;;23.10
41593;BMP180;28026;48.562;14.440;2022-08-21T02:48:52;93678.00;;;23.10
41593;BMP180;28026;48.562;14.440;2022-08-21T02:51:23;93675.00;;;23.20
41593;BMP180;28026;48.562;14.440;2022-08-21T02:53:55;93663.00;;;23.20
41593;BMP180;28026;48.562;14.440;2022-08-21T02:56:26;93655.00;;;23.20
41593;BMP180;28026;48.562;14.440;2022-08-21T02:58:57;93673.00;;;23.20
41593;BMP180;28026;48.562;14.440;2022-08-21T03:01:28;93674.00;;;23.20
41593;BMP180;28026;48.562;14.440;2022-08-21T03:03:59;93655.00;;;23.20
41593;BMP180;28026;48.562;14.440;2022-08-21T03:06:30;93667.00;;;23.20
41593;BMP180;28026;48.562;14.440;2022-08-21T03:09:01;93672.00;;;23.20
41593;BMP180;28026;48.562;14.440;2022-08-21T03:11:32;93681.00;;;23.20
41593;BMP180;28026;48.562;14.440;2022-08-21T03:14:03;93672.00;;;23.20
41593;BMP180;28026;48.562;14.440;2022-08-21T03:16:35;93676.00;;;23.20
41593;BMP180;28026;48.562;14.440;2022-08-21T03:19:06;93669.00;;;23.20
41593;BMP180;28026;48.562;14.440;2022-08-21T03:21:37;93677.00;;;23.20
41593;BMP180;28026;48.562;14.440;2022-08-21T03:24:09;93674.00;;;23.20
41593;BMP180;28026;48.562;14.440;2022-08-21T03:26:39;93674.00;;;23.20
41593;BMP180;28026;48.562;14.440;2022-08-21T03:29:10;93675.00;;;23.20
41593;BMP180;28026;48.562;14.440;2022-08-21T03:31:41;93669.00;;;23.20
41593;BMP180;28026;48.562;14.440;2022-08-21T03:34:12;93668.00;;;23.20
41593;BMP180;28026;48.562;14.440;2022-08-21T03:36:44;93659.00;;;23.20
41593;BMP180;28026;48.562;14.440;2022-08-21T03:39:16;93675.00;;;23.10
41593;BMP180;28026;48.562;14.440;2022-08-21T03:41:48;93665.00;;;23.20
41593;BMP180;28026;48.562;14.440;2022-08-21T03:44:19;93660.00;;;23.10
41593;BMP180;28026;48.562;14.440;2022-08-21T03:46:50;93667.00;;;23.10
41593;BMP180;28026;48.562;14.440;2022-08-21T03:49:21;93669.00;;;23.10
41593;BMP180;28026;48.562;14.440;2022-08-21T03:51:53;93667.00;;;23.00
41593;BMP180;28026;48.562;14.440;2022-08-21T03:54:24;93664.00;;;23.00
41593;BMP180;28026;48.562;14.440;2022-08-21T03:56:56;93671.00;;;23.00
41593;BMP180;28026;48.562;14.440;2022-08-21T03:59:27;93667.00;;;23.00
41593;BMP180;28026;48.562;14.440;2022-08-21T04:02:03;93667.00;;;23.00
41593;BMP180;28026;48.562;14.440;2022-08-21T04:04:36;93668.00;;;23.00
41593;BMP180;28026;48.562;14.440;2022-08-21T04:07:07;93667.00;;;23.00
41593;BMP180;28026;48.562;14.440;2022-08-21T04:09:39;93668.00;;;23.10
41593;BMP180;28026;48.562;14.440;2022-08-21T04:12:10;93688.00;;;23.10
41593;BMP180;28026;48.562;14.440;2022-08-21T04:14:41;93677.00;;;23.20
41593;BMP180;28026;48.562;14.440;2022-08-21T04:17:12;93678.00;;;23.20
41593;BMP180;28026;48.562;14.440;2022-08-21T04:19:43;93679.00;;;23.20
41593;BMP180;28026;48.562;14.440;2022-08-21T04:22:15;93679.00;;;23.30
41593;BMP180;28026;48.562;14.440;2022-08-21T04:24:46;93689.00;;;23.30
41593;BMP180;28026;48.562;14.440;2022-08-21T04:27:18;93681.00;;;23.30
41593;BMP180;28026;48.562;14.440;2022-08-21T04:29:48;93689.00;;;23.20
41593;BMP180;28026;48.562;14.440;2022-08-21T04:32:24;93689.00;;;23.20
41593;BMP180;28026;48.562;14.440;2022-08-21T04:35:05;93698.00;;;23.30
41593;BMP180;28026;48.562;14.440;2022-08-21T04:37:39;93690.00;;;23.30
41593;BMP180;28026;48.562;14.440;2022-08-21T04:40:15;93702.00;;;23.40
41593;BMP180;28026;48.562;14.440;2022-08-21T04:42:56;93703.00;;;23.40
41593;BMP180;28026;48.562;14.440;2022-08-21T04:45:40;93690.00;;;23.40
41593;BMP180;28026;48.562;14.440;2022-08-21T04:48:15;93696.00;;;23.40
41593;BMP180;28026;48.562;14.440;2022-08-21T04:51:05;93703.00;;;23.40
41593;BMP180;28026;48.562;14.440;2022-08-21T04:54:07;93705.00;;;23.30
41593;BMP180;28026;48.562;14.440;2022-08-21T04:56:51;93709.00;;;23.30
41593;BMP180;28026;48.562;14.440;2022-08-21T04:59:32;93703.00;;;23.30
41593;BMP180;28026;48.562;14.440;2022-08-21T05:02:08;93711.00;;;23.30
41593;BMP180;28026;48.562;14.440;2022-08-21T05:04:47;93716.00;;;23.30
41593;BMP180;28026;48.562;14.440;2022-08-21T05:07:28;93714.00;;;23.30
41593;BMP180;28026;48.562;14.440;2022-08-21T05:10:01;93711.00;;;23.30
41593;BMP180;28026;48.562;14.440;2022-08-21T05:12:32;93722.00;;;23.40
41593;BMP180;28026;48.562;14.440;2022-08-21T05:15:04;93715.00;;;23.40
41593;BMP180;28026;48.562;14.440;2022-08-21T05:17:35;93718.00;;;23.40
41593;BMP180;28026;48.562;14.440;2022-08-21T05:20:07;93716.00;;;23.30
41593;BMP180;28026;48.562;14.440;2022-08-21T05:22:42;93723.00;;;23.30
41593;BMP180;28026;48.562;14.440;2022-08-21T05:25:13;93725.00;;;23.30
41593;BMP180;28026;48.562;14.440;2022-08-21T05:27:44;93724.00;;;23.30
41593;BMP180;28026;48.562;14.440;2022-08-21T05:30:15;93724.00;;;23.20
41593;BMP180;28026;48.562;14.440;2022-08-21T05:32:47;93724.00;;;23.20
41593;BMP180;28026;48.562;14.440;2022-08-21T05:35:18;93717.00;;;23.20
41593;BMP180;28026;48.562;14.440;2022-08-21T05:37:49;93727.00;;;23.20
41593;BMP180;28026;48.562;14.440;2022-08-21T05:40:20;93728.00;;;23.30
41593;BMP180;28026;48.562;14.440;2022-08-21T05:42:52;93729.00;;;23.30
41593;BMP180;28026;48.562;14.440;2022-08-21T05:45:32;93735.00;;;23.30
41593;BMP180;28026;48.562;14.440;2022-08-21T05:48:22;93739.00;;;23.40
41593;BMP180;28026;48.562;14.440;2022-08-21T05:50:57;93736.00;;;23.40
41593;BMP180;28026;48.562;14.440;2022-08-21T05:53:28;93733.00;;;23.40
41593;BMP180;28026;48.562;14.440;2022-08-21T05:55:59;93736.00;;;23.50
41593;BMP180;28026;48.562;14.440;2022-08-21T05:58:32;93734.00;;;23.50
41593;BMP180;28026;48.562;14.440;2022-08-21T06:01:05;93722.00;;;23.50
41593;BMP180;28026;48.562;14.440;2022-08-21T06:03:40;93729.00;;;23.60
41593;BMP180;28026;48.562;14.440;2022-08-21T06:06:13;93735.00;;;23.60
41593;BMP180;28026;48.562;14.440;2022-08-21T06:08:44;93735.00;;;23.60
41593;BMP180;28026;48.562;14.440;2022-08-21T06:11:15;93731.00;;;23.60
41593;BMP180;28026;48.562;14.440;2022-08-21T06:13:46;93732.00;;;23.60
41593;BMP180;28026;48.562;14.440;2022-08-21T06:16:17;93730.00;;;23.60
41593;BMP180;28026;48.562;14.440;2022-08-21T06:18:48;93727.00;;;23.60
41593;BMP180;28026;48.562;14.440;2022-08-21T06:21:20;93734.00;;;23.60
41593;BMP180;28026;48.562;14.440;2022-08-21T06:23:51;93734.00;;;23.60
41593;BMP180;28026;48.562;14.440;2022-08-21T06:26:22;93739.00;;;23.50
41593;BMP180;28026;48.562;14.440;2022-08-21T06:28:54;93736.00;;;23.50
41593;BMP180;28026;48.562;14.440;2022-08-21T06:31:27;93743.00;;;23.50
41593;BMP180;28026;48.562;14.440;2022-08-21T06:33:59;93735.00;;;23.50
41593;BMP180;28026;48.562;14.440;2022-08-21T06:36:30;93743.00;;;23.50
41593;BMP180;28026;48.562;14.440;2022-08-21T06:39:01;93730.00;;;23.50
41593;BMP180;28026;48.562;14.440;2022-08-21T06:41:33;93727.00;;;23.50
41593;BMP180;28026;48.562;14.440;2022-08-21T06:44:04;93737.00;;;23.50
41593;BMP180;28026;48.562;14.440;2022-08-21T06:46:36;93737.00;;;23.60
41593;BMP180;28026;48.562;14.440;2022-08-21T06:49:07;93735.00;;;23.60
41593;BMP180;28026;48.562;14.440;2022-08-21T06:51:39;93731.00;;;23.60
41593;BMP180;28026;48.562;14.440;2022-08-21T06:54:11;93733.00;;;23.60
41593;BMP180;28026;48.562;14.440;2022-08-21T06:56:41;93737.00;;;23.60
41593;BMP180;28026;48.562;14.440;2022-08-21T06:59:12;93733.00;;;23.60
41593;BMP180;28026;48.562;14.440;2022-08-21T07:01:44;93724.00;;;23.50
41593;BMP180;28026;48.562;14.440;2022-08-21T07:04:15;93735.00;;;23.50
41593;BMP180;28026;48.562;14.440;2022-08-21T07:06:46;93728.00;;;23.50
41593;BMP180;28026;48.562;14.440;2022-08-21T07:09:17;93723.00;;;23.50
41593;BMP180;28026;48.562;14.440;2022-08-21T07:11:52;93736.00;;;23.50
41593;BMP180;28026;48.562;14.440;2022-08-21T07:14:25;93727.00;;;23.60
41593;BMP180;28026;48.562;14.440;2022-08-21T07:16:56;93738.00;;;23.70
41593;BMP180;28026;48.562;14.440;2022-08-21T07:19:28;93737.00;;;23.70
41593;BMP180;28026;48.562;14.440;2022-08-21T07:22:01;93743.00;;;23.70
41593;BMP180;28026;48.562;14.440;2022-08-21T07:24:32;93739.00;;;23.80
41593;BMP180;28026;48.562;14.440;2022-08-21T07:27:03;93739.00;;;23.90
41593;BMP180;28026;48.562;14.440;2022-08-21T07:29:34;93728.00;;;24.00
41593;BMP180;28026;48.562;14.440;2022-08-21T07:32:05;93737.00;;;24.00
41593;BMP180;28026;48.562;14.440;2022-08-21T07:34:36;93745.00;;;24.20
41593;BMP180;28026;48.562;14.440;2022-08-21T07:37:07;93731.00;;;24.30
41593;BMP180;28026;48.562;14.440;2022-08-21T07:39:38;93737.00;;;24.30
41593;BMP180;28026;48.562;14.440;2022-08-21T07:42:09;93746.00;;;24.40
41593;BMP180;28026;48.562;14.440;2022-08-21T07:44:41;93733.00;;;24.50
41593;BMP180;28026;48.562;14.440;2022-08-21T07:47:11;93731.00;;;24.50
41593;BMP180;28026;48.562;14.440;2022-08-21T07:49:42;93741.00;;;24.50
41593;BMP180;28026;48.562;14.440;2022-08-21T07:52:13;93733.00;;;24.50
41593;BMP180;28026;48.562;14.440;2022-08-21T07:54:44;93737.00;;;24.40
41593;BMP180;28026;48.562;14.440;2022-08-21T07:57:15;93739.00;;;24.40
41593;BMP180;28026;48.562;14.440;2022-08-21T07:59:46;93730.00;;;24.40
41593;BMP180;28026;48.562;14.440;2022-08-21T08:02:27;93743.00;;;24.40
41593;BMP180;28026;48.562;14.440;2022-08-21T08:05:07;93736.00;;;24.40
41593;BMP180;28026;48.562;14.440;2022-08-21T08:07:41;93743.00;;;24.30
41593;BMP180;28026;48.562;14.440;2022-08-21T08:10:15;93740.00;;;24.30
41593;BMP180;28026;48.562;14.440;2022-08-21T08:12:48;93724.00;;;24.30
41593;BMP180;28026;48.562;14.440;2022-08-21T08:15:24;93725.00;;;24.30
41593;BMP180;28026;48.562;14.440;2022-08-21T08:17:57;93731.00;;;24.40
41593;BMP180;28026;48.562;14.440;2022-08-21T08:20:29;93728.00;;;24.40
41593;BMP180;28026;48.562;14.440;2022-08-21T08:23:00;93723.00;;;24.50
41593;BMP180;28026;48.562;14.440;2022-08-21T08:25:31;93726.00;;;24.50
41593;BMP180;28026;48.562;14.440;2022-08-21T08:28:04;93726.00;;;24.60
41593;BMP180;28026;48.562;14.440;2022-08-21T08:30:35;93716.00;;;24.60
41593;BMP180;28026;48.562;14.440;2022-08-21T08:33:06;93718.00;;;24.60
41593;BMP180;28026;48.562;14.440;2022-08-21T08:35:37;93720.00;;;24.60
41593;BMP180;28026;48.562;14.440;2022-08-21T08:38:09;93728.00;;;24.60
41593;BMP180;28026;48.562;14.440;2022-08-21T08:43:59;93728.00;;;24.60
41593;BMP180;28026;48.562;14.440;2022-08-21T08:46:47;93727.00;;;24.60
41593;BMP180;28026;48.562;14.440;2022-08-21T08:49:29;93730.00;;;24.60
41593;BMP180;28026;48.562;14.440;2022-08-21T08:52:22;93733.00;;;24.60
41593;BMP180;28026;48.562;14.440;2022-08-21T08:55:18;93728.00;;;24.50
41593;BMP180;28026;48.562;14.440;2022-08-21T08:57:55;93741.00;;;24.60
41593;BMP180;28026;48.562;14.440;2022-08-21T09:00:27;93741.00;;;24.60
41593;BMP180;28026;48.562;14.440;2022-08-21T09:03:02;93745.00;;;24.60
41593;BMP180;28026;48.562;14.440;2022-08-21T09:05:49;93743.00;;;24.60
41593;BMP180;28026;48.562;14.440;2022-08-21T09:12:16;93750.00;;;24.70
41593;BMP180;28026;48.562;14.440;2022-08-21T09:18:41;93750.00;;;24.80
41593;BMP180;28026;48.562;14.440;2022-08-21T09:21:41;93749.00;;;24.80
41593;BMP180;28026;48.562;14.440;2022-08-21T09:27:53;93751.00;;;24.90
41593;BMP180;28026;48.562;14.440;2022-08-21T09:30:31;93753.00;;;25.00
41593;BMP180;28026;48.562;14.440;2022-08-21T09:33:03;93754.00;;;25.00
41593;BMP180;28026;48.562;14.440;2022-08-21T09:35:34;93747.00;;;25.00
41593;BMP180;28026;48.562;14.440;2022-08-21T09:38:08;93756.00;;;25.00
41593;BMP180;28026;48.562;14.440;2022-08-21T09:40:45;93756.00;;;25.00
41593;BMP180;28026;48.562;14.440;2022-08-21T09:43:22;93750.00;;;25.10
41593;BMP180;28026;48.562;14.440;2022-08-21T09:46:19;93764.00;;;25.10
41593;BMP180;28026;48.562;14.440;2022-08-21T09:48:58;93750.00;;;25.20
41593;BMP180;28026;48.562;14.440;2022-08-21T09:51:36;93753.00;;;25.30
41593;BMP180;28026;48.562;14.440;2022-08-21T09:54:12;93756.00;;;25.40
41593;BMP180;28026;48.562;14.440;2022-08-21T09:57:00;93755.00;;;25.50
41593;BMP180;28026;48.562;14.440;2022-08-21T10:00:32;93758.00;;;25.60
41593;BMP180;28026;48.562;14.440;2022-08-21T10:03:21;93750.00;;;25.70
41593;BMP180;28026;48.562;14.440;2022-08-21T10:06:05;93764.00;;;25.80
41593;BMP180;28026;48.562;14.440;2022-08-21T10:08:41;93757.00;;;25.90
41593;BMP180;28026;48.562;14.440;2022-08-21T10:11:16;93755.00;;;25.90
41593;BMP180;28026;48.562;14.440;2022-08-21T10:20:24;93762.00;;;26.00
41593;BMP180;28026;48.562;14.440;2022-08-21T10:23:40;93755.00;;;26.00
41593;BMP180;28026;48.562;14.440;2022-08-21T10:26:48;93761.00;;;25.90
41593;BMP180;28026;48.562;14.440;2022-08-21T10:30:07;93761.00;;;25.90
41593;BMP180;28026;48.562;14.440;2022-08-21T10:33:23;93761.00;;;25.80
41593;BMP180;28026;48.562;14.440;2022-08-21T10:36:19;93762.00;;;25.70
41593;BMP180;28026;48.562;14.440;2022-08-21T10:39:21;93761.00;;;25.70
41593;BMP180;28026;48.562;14.440;2022-08-21T10:42:25;93759.00;;;25.60
41593;BMP180;28026;48.562;14.440;2022-08-21T10:48:35;93762.00;;;25.70
41593;BMP180;28026;48.562;14.440;2022-08-21T10:51:20;93753.00;;;25.90
41593;BMP180;28026;48.562;14.440;2022-08-21T10:54:45;93750.00;;;26.00
41593;BMP180;28026;48.562;14.440;2022-08-21T11:00:52;93750.00;;;26.20
41593;BMP180;28026;48.562;14.440;2022-08-21T11:03:52;93759.00;;;26.40
41593;BMP180;28026;48.562;14.440;2022-08-21T11:06:49;93765.00;;;26.50
41593;BMP180;28026;48.562;14.440;2022-08-21T11:09:25;93755.00;;;26.60
41593;BMP180;28026;48.562;14.440;2022-08-21T11:12:23;93752.00;;;26.60
41593;BMP180;28026;48.562;14.440;2022-08-21T11:15:38;93754.00;;;26.70
41593;BMP180;28026;48.562;14.440;2022-08-21T11:18:45;93740.00;;;26.90
41593;BMP180;28026;48.562;14.440;2022-08-21T11:24:38;93743.00;;;27.20
41593;BMP180;28026;48.562;14.440;2022-08-21T11:27:26;93738.00;;;27.30
41593;BMP180;28026;48.562;14.440;2022-08-21T11:30:06;93732.00;;;27.40
41593;BMP180;28026;48.562;14.440;2022-08-21T11:42:39;93730.00;;;28.10
41593;BMP180;28026;48.562;14.440;2022-08-21T11:45:44;93720.00;;;28.20
41593;BMP180;28026;48.562;14.440;2022-08-21T11:48:46;93717.00;;;28.10
41593;BMP180;28026;48.562;14.440;2022-08-21T11:51:41;93711.00;;;28.20
41593;BMP180;28026;48.562;14.440;2022-08-21T11:54:26;93718.00;;;28.30
41593;BMP180;28026;48.562;14.440;2022-08-21T11:57:12;93714.00;;;28.40
41593;BMP180;28026;48.562;14.440;2022-08-21T12:00:34;93715.00;;;28.40
41593;BMP180;28026;48.562;14.440;2022-08-21T12:03:16;93709.00;;;28.20
41593;BMP180;28026;48.562;14.440;2022-08-21T12:06:05;93704.00;;;28.00
41593;BMP180;28026;48.562;14.440;2022-08-21T12:08:45;93714.00;;;28.00
41593;BMP180;28026;48.562;14.440;2022-08-21T12:14:15;93713.00;;;28.20
41593;BMP180;28026;48.562;14.440;2022-08-21T12:16:49;93717.00;;;28.20
41593;BMP180;28026;48.562;14.440;2022-08-21T12:22:13;93732.00;;;28.30
41593;BMP180;28026;48.562;14.440;2022-08-21T12:24:51;93725.00;;;28.40
41593;BMP180;28026;48.562;14.440;2022-08-21T12:28:02;93720.00;;;28.50
41593;BMP180;28026;48.562;14.440;2022-08-21T12:30:43;93721.00;;;28.60
41593;BMP180;28026;48.562;14.440;2022-08-21T12:33:32;93721.00;;;28.60
41593;BMP180;28026;48.562;14.440;2022-08-21T12:36:14;93723.00;;;28.70
41593;BMP180;28026;48.562;14.440;2022-08-21T12:38:57;93720.00;;;28.70
41593;BMP180;28026;48.562;14.440;2022-08-21T12:41:55;93714.00;;;28.80
41593;BMP180;28026;48.562;14.440;2022-08-21T12:44:43;93720.00;;;28.90
41593;BMP180;28026;48.562;14.440;2022-08-21T12:47:43;93709.00;;;29.20
41593;BMP180;28026;48.562;14.440;2022-08-21T12:50:50;93715.00;;;29.40
41593;BMP180;28026;48.562;14.440;2022-08-21T12:53:33;93702.00;;;29.50
41593;BMP180;28026;48.562;14.440;2022-08-21T12:56:19;93708.00;;;29.70
41593;BMP180;28026;48.562;14.440;2022-08-21T12:59:05;93705.00;;;29.80
41593;BMP180;28026;48.562;14.440;2022-08-21T13:01:50;93707.00;;;29.80
41593;BMP180;28026;48.562;14.440;2022-08-21T13:04:44;93694.00;;;29.80
41593;BMP180;28026;48.562;14.440;2022-08-21T13:07:26;93707.00;;;29.80
41593;BMP180;28026;48.562;14.440;2022-08-21T13:10:18;93702.00;;;29.80
41593;BMP180;28026;48.562;14.440;2022-08-21T13:13:00;93698.00;;;29.90
41593;BMP180;28026;48.562;14.440;2022-08-21T13:15:39;93698.00;;;30.10
41593;BMP180;28026;48.562;14.440;2022-08-21T13:18:23;93702.00;;;30.30
41593;BMP180;28026;48.562;14.440;2022-08-21T13:21:13;93698.00;;;30.40
41593;BMP180;28026;48.562;14.440;2022-08-21T13:23:45;93704.00;;;30.50
41593;BMP180;28026;48.562;14.440;2022-08-21T13:26:21;93704.00;;;30.50
41593;BMP180;28026;48.562;14.440;2022-08-21T13:28:52;93703.00;;;30.50
41593;BMP180;28026;48.562;14.440;2022-08-21T13:31:29;93704.00;;;30.50
41593;BMP180;28026;48.562;14.440;2022-08-21T13:34:05;93697.00;;;30.50
41593;BMP180;28026;48.562;14.440;2022-08-21T13:36:42;93704.00;;;30.50
41593;BMP180;28026;48.562;14.440;2022-08-21T13:39:18;93700.00;;;30.60
41593;BMP180;28026;48.562;14.440;2022-08-21T13:41:55;93698.00;;;31.00
41593;BMP180;28026;48.562;14.440;2022-08-21T13:44:45;93699.00;;;31.60
41593;BMP180;28026;48.562;14.440;2022-08-21T13:47:18;93695.00;;;32.10
41593;BMP180;28026;48.562;14.440;2022-08-21T13:49:51;93689.00;;;32.00
41593;BMP180;28026;48.562;14.440;2022-08-21T13:52:26;93685.00;;;31.90
41593;BMP180;28026;48.562;14.440;2022-08-21T13:55:11;93693.00;;;31.70
41593;BMP180;28026;48.562;14.440;2022-08-21T13:57:43;93694.00;;;32.00
41593;BMP180;28026;48.562;14.440;2022-08-21T14:00:25;93699.00;;;32.20
41593;BMP180;28026;48.562;14.440;2022-08-21T14:03:08;93691.00;;;32.00
41593;BMP180;28026;48.562;14.440;2022-08-21T14:05:45;93696.00;;;31.90
41593;BMP180;28026;48.562;14.440;2022-08-21T14:08:39;93694.00;;;31.60
41593;BMP180;28026;48.562;14.440;2022-08-21T14:11:13;93694.00;;;31.50
41593;BMP180;28026;48.562;14.440;2022-08-21T14:14:20;93702.00;;;31.30
41593;BMP180;28026;48.562;14.440;2022-08-21T14:16:58;93699.00;;;31.10
41593;BMP180;28026;48.562;14.440;2022-08-21T14:19:41;93700.00;;;31.10
41593;BMP180;28026;48.562;14.440;2022-08-21T14:25:36;93689.00;;;31.30
41593;BMP180;28026;48.562;14.440;2022-08-21T14:30:57;93683.00;;;31.80
41593;BMP180;28026;48.562;14.440;2022-08-21T14:33:31;93683.00;;;32.00
41593;BMP180;28026;48.562;14.440;2022-08-21T14:36:03;93681.00;;;32.10
41593;BMP180;28026;48.562;14.440;2022-08-21T14:38:37;93678.00;;;32.00
41593;BMP180;28026;48.562;14.440;2022-08-21T14:41:21;93684.00;;;31.80
41593;BMP180;28026;48.562;14.440;2022-08-21T14:43:56;93686.00;;;31.60
41593;BMP180;28026;48.562;14.440;2022-08-21T14:46:30;93680.00;;;31.60
41593;BMP180;28026;48.562;14.440;2022-08-21T14:49:03;93672.00;;;31.60
41593;BMP180;28026;48.562;14.440;2022-08-21T14:51:34;93675.00;;;31.70
41593;BMP180;28026;48.562;14.440;2022-08-21T14:54:06;93669.00;;;31.90
41593;BMP180;28026;48.562;14.440;2022-08-21T14:56:38;93668.00;;;32.10
41593;BMP180;28026;48.562;14.440;2022-08-21T14:59:09;93663.00;;;32.30
41593;BMP180;28026;48.562;14.440;2022-08-21T15:01:41;93677.00;;;32.50
41593;BMP180;28026;48.562;14.440;2022-08-21T15:04:11;93658.00;;;32.50
41593;BMP180;28026;48.562;14.440;2022-08-21T15:06:43;93669.00;;;32.60
41593;BMP180;28026;48.562;14.440;2022-08-21T15:09:14;93665.00;;;32.60
41593;BMP180;28026;48.562;14.440;2022-08-21T15:11:45;93659.00;;;32.60
41593;BMP180;28026;48.562;14.440;2022-08-21T15:14:21;93665.00;;;32.50
41593;BMP180;28026;48.562;14.440;2022-08-21T15:16:57;93671.00;;;32.50
41593;BMP180;28026;48.562;14.440;2022-08-21T15:19:29;93671.00;;;32.60
41593;BMP180;28026;48.562;14.440;2022-08-21T15:22:00;93666.00;;;32.50
41593;BMP180;28026;48.562;14.440;2022-08-21T15:24:32;93668.00;;;32.50
41593;BMP180;28026;48.562;14.440;2022-08-21T15:27:06;93656.00;;;32.60
41593;BMP180;28026;48.562;14.440;2022-08-21T15:29:41;93670.00;;;32.80
41593;BMP180;28026;48.562;14.440;2022-08-21T15:32:26;93664.00;;;32.80
41593;BMP180;28026;48.562;14.440;2022-08-21T15:34:59;93663.00;;;32.80
41593;BMP180;28026;48.562;14.440;2022-08-21T15:37:30;93651.00;;;32.80
41593;BMP180;28026;48.562;14.440;2022-08-21T15:40:04;93653.00;;;32.80
41593;BMP180;28026;48.562;14.440;2022-08-21T15:42:39;93665.00;;;32.90
41593;BMP180;28026;48.562;14.440;2022-08-21T15:45:12;93659.00;;;32.80